createdAt,value
2022-08-26T00:00:23.745Z,55.2200
2022-08-26T00:01:29.679Z,55.0570
2022-08-26T00:02:28.442Z,55.0410
2022-08-26T00:03:30.643Z,54.8270
2022-08-26T00:04:30.830Z,54.7490
2022-08-26T00:05:33.094Z,54.7570
2022-08-26T00:06:35.424Z,54.8590
2022-08-26T00:07:37.732Z,54.9320
2022-08-26T00:08:40.068Z,55.0300
2022-08-26T00:09:42.403Z,55.2280
2022-08-26T00:10:42.575Z,55.5270
2022-08-26T00:11:45.450Z,55.3980
2022-08-26T00:12:47.242Z,55.3130
2022-08-26T00:13:49.661Z,55.3880
2022-08-26T00:14:51.991Z,55.6530
2022-08-26T00:15:52.208Z,55.3510
2022-08-26T00:16:55.180Z,55.3730
2022-08-26T00:17:56.914Z,55.5460
2022-08-26T00:18:59.286Z,55.6320
2022-08-26T00:20:01.662Z,55.7870
2022-08-26T00:21:01.860Z,55.7980
2022-08-26T00:22:04.247Z,55.6530
2022-08-26T00:23:06.709Z,55.7070
2022-08-26T00:24:08.869Z,55.8680
2022-08-26T00:25:11.202Z,56.0960
2022-08-26T00:26:11.359Z,56.3050
2022-08-26T00:27:13.721Z,56.1340
2022-08-26T00:28:16.025Z,55.7340
2022-08-26T00:29:18.353Z,55.4960
2022-08-26T00:30:22.681Z,55.4710
2022-08-26T00:31:20.809Z,55.2390
2022-08-26T00:32:30.063Z,55.0700
2022-08-26T00:34:31.939Z,55.2170
2022-08-26T00:35:34.096Z,55.2530
2022-08-26T00:36:36.267Z,55.2380
2022-08-26T00:37:38.693Z,55.1800
2022-08-26T00:38:40.680Z,54.7610
2022-08-26T00:39:40.748Z,54.5160
2022-08-26T00:40:42.989Z,54.7090
2022-08-26T00:41:45.234Z,55.0900
2022-08-26T00:42:47.511Z,55.0310
2022-08-26T00:43:49.754Z,55.3510
2022-08-26T00:44:52.033Z,55.4440
2022-08-26T00:45:54.382Z,55.8300
2022-08-26T00:46:56.573Z,55.7640
2022-08-26T00:47:58.821Z,55.6170
2022-08-26T00:48:58.931Z,55.6530
2022-08-26T00:50:01.198Z,55.9090
2022-08-26T00:51:03.474Z,55.9530
2022-08-26T00:52:05.757Z,56.1360
2022-08-26T00:53:08.273Z,56.3360
2022-08-26T00:54:10.781Z,56.4330
2022-08-26T00:55:12.472Z,56.5440
2022-08-26T00:56:14.747Z,56.7490
2022-08-26T00:57:16.988Z,56.7430
2022-08-26T00:58:17.141Z,56.6610
2022-08-26T00:59:19.333Z,56.6090
2022-08-26T01:00:21.575Z,56.4180
2022-08-26T01:01:23.885Z,56.4180
2022-08-26T01:02:26.315Z,56.0260
2022-08-26T01:03:28.402Z,55.6740
2022-08-26T01:04:30.648Z,55.7260
2022-08-26T01:05:32.926Z,55.8940
2022-08-26T01:06:33.067Z,55.9600
2022-08-26T01:07:33.212Z,55.5750
2022-08-26T01:08:35.542Z,55.7500
2022-08-26T01:09:37.798Z,55.8220
2022-08-26T01:10:40.073Z,55.9580
2022-08-26T01:11:42.335Z,56.0330
2022-08-26T01:12:44.640Z,56.2160
2022-08-26T01:13:44.832Z,56.3990
2022-08-26T01:14:47.112Z,56.6690
2022-08-26T01:15:49.429Z,56.8770
2022-08-26T01:16:51.724Z,56.6820
2022-08-26T01:17:53.995Z,56.3130
2022-08-26T01:18:56.391Z,55.9180
2022-08-26T01:19:56.381Z,55.8380
2022-08-26T01:20:58.637Z,55.6250
2022-08-26T01:22:00.890Z,55.4480
2022-08-26T01:23:03.391Z,55.8060
2022-08-26T01:24:05.477Z,56.0570
2022-08-26T01:25:07.732Z,56.0540
2022-08-26T01:26:18.252Z,55.8970
2022-08-26T01:27:12.271Z,56.1560
2022-08-26T01:28:12.403Z,56.4140
2022-08-26T01:29:14.688Z,56.5640
2022-08-26T01:30:16.880Z,56.4340
2022-08-26T01:31:19.205Z,56.3940
2022-08-26T01:32:21.460Z,56.6430
2022-08-26T01:33:23.799Z,56.9610
2022-08-26T01:34:26.164Z,57.0430
2022-08-26T01:35:28.471Z,57.2040
2022-08-26T01:36:28.650Z,57.3620
2022-08-26T01:37:30.944Z,57.2120
2022-08-26T01:38:33.223Z,57.0520
2022-08-26T01:39:35.593Z,56.8930
2022-08-26T01:40:35.663Z,56.9500
2022-08-26T01:41:37.934Z,57.0230
2022-08-26T01:42:40.222Z,57.2870
2022-08-26T01:43:42.533Z,57.4030
2022-08-26T01:44:44.830Z,57.5930
2022-08-26T01:45:47.184Z,57.5720
2022-08-26T01:46:49.448Z,57.6540
2022-08-26T01:47:56.877Z,57.6910
2022-08-26T01:48:52.418Z,57.8100
2022-08-26T01:49:54.314Z,57.9010
2022-08-26T01:50:56.618Z,58.0250
2022-08-26T01:51:58.959Z,57.9380
2022-08-26T01:53:01.288Z,57.6180
2022-08-26T01:54:01.451Z,57.2960
2022-08-26T01:55:03.789Z,57.0850
2022-08-26T01:56:06.068Z,57.3310
2022-08-26T01:57:08.393Z,57.5700
2022-08-26T01:58:10.722Z,57.5810
2022-08-26T01:59:13.027Z,57.3560
2022-08-26T02:00:13.224Z,57.1330
2022-08-26T02:01:15.591Z,56.8930
2022-08-26T02:02:17.787Z,56.5520
2022-08-26T02:03:20.101Z,56.6730
2022-08-26T02:04:22.451Z,56.4060
2022-08-26T02:05:24.725Z,56.6750
2022-08-26T02:06:26.982Z,57.1250
2022-08-26T02:07:27.097Z,57.3030
2022-08-26T02:08:29.384Z,57.1280
2022-08-26T02:09:31.702Z,57.0560
2022-08-26T02:10:34.044Z,57.1790
2022-08-26T02:11:36.827Z,57.2900
2022-08-26T02:12:38.657Z,57.5250
2022-08-26T02:13:38.819Z,57.5160
2022-08-26T02:14:43.713Z,57.2200
2022-08-26T02:15:43.402Z,56.9740
2022-08-26T02:16:45.619Z,56.7120
2022-08-26T02:17:47.777Z,56.5040
2022-08-26T02:18:49.927Z,56.3260
2022-08-26T02:19:52.166Z,56.0480
2022-08-26T02:20:54.346Z,56.0230
2022-08-26T02:21:56.490Z,55.8690
2022-08-26T02:22:58.660Z,56.0330
2022-08-26T02:24:00.803Z,56.1810
2022-08-26T02:25:02.996Z,56.6540
2022-08-26T02:26:05.335Z,56.9450
2022-08-26T02:27:05.320Z,57.2570
2022-08-26T02:28:07.527Z,57.3360
2022-08-26T02:29:09.721Z,57.2660
2022-08-26T02:30:11.959Z,57.2660
2022-08-26T02:31:14.233Z,57.4050
2022-08-26T02:32:18.535Z,57.6280
2022-08-26T02:33:18.664Z,57.8570
2022-08-26T02:34:20.912Z,58.0910
2022-08-26T02:35:23.209Z,58.5200
2022-08-26T02:36:28.534Z,58.5430
2022-08-26T02:37:27.643Z,58.7340
2022-08-26T02:38:27.755Z,58.5970
2022-08-26T02:39:30.045Z,58.5340
2022-08-26T02:40:32.291Z,58.5860
2022-08-26T02:41:34.531Z,58.4370
2022-08-26T02:42:36.735Z,58.1090
2022-08-26T02:43:38.949Z,57.8120
2022-08-26T02:44:41.245Z,57.7880
2022-08-26T02:45:43.519Z,58.0220
2022-08-26T02:46:46.804Z,58.0790
2022-08-26T02:47:45.986Z,57.9010
2022-08-26T02:48:48.307Z,57.9790
2022-08-26T02:49:50.633Z,58.1210
2022-08-26T02:50:52.920Z,58.2420
2022-08-26T02:51:55.299Z,58.3270
2022-08-26T02:52:57.608Z,58.5250
2022-08-26T02:53:57.897Z,58.6780
2022-08-26T02:55:00.254Z,58.6160
2022-08-26T02:56:02.650Z,58.5930
2022-08-26T02:57:05.143Z,58.6250
2022-08-26T02:58:05.296Z,58.5730
2022-08-26T02:59:07.753Z,58.7340
2022-08-26T03:00:10.101Z,58.8040
2022-08-26T03:01:12.495Z,58.7600
2022-08-26T03:02:12.701Z,58.9750
2022-08-26T03:03:15.019Z,58.9750
2022-08-26T03:04:17.334Z,59.2320
2022-08-26T03:05:19.634Z,59.3130
2022-08-26T03:06:21.985Z,59.3310
2022-08-26T03:07:24.318Z,59.0390
2022-08-26T03:08:24.507Z,58.6570
2022-08-26T03:09:26.785Z,58.3950
2022-08-26T03:10:29.102Z,58.0650
2022-08-26T03:11:33.228Z,57.9370
2022-08-26T03:12:33.856Z,57.9840
2022-08-26T03:13:33.948Z,57.9550
2022-08-26T03:14:36.282Z,57.8690
2022-08-26T03:16:32.463Z,58.0950
2022-08-26T03:17:30.499Z,58.2040
2022-08-26T03:18:32.839Z,58.2580
2022-08-26T03:19:35.109Z,57.9850
2022-08-26T03:20:37.431Z,57.8220
2022-08-26T03:21:39.758Z,58.1440
2022-08-26T03:22:39.947Z,58.4680
2022-08-26T03:23:42.334Z,58.6800
2022-08-26T03:24:46.189Z,58.8590
2022-08-26T03:25:47.029Z,59.2270
2022-08-26T03:26:52.056Z,59.3120
2022-08-26T03:27:49.611Z,59.3120
2022-08-26T03:28:51.975Z,59.1090
2022-08-26T03:29:54.239Z,59.1510
2022-08-26T03:30:56.608Z,59.2210
2022-08-26T03:31:58.958Z,59.2460
2022-08-26T03:32:59.150Z,58.8590
2022-08-26T03:34:01.534Z,58.5840
2022-08-26T03:35:03.821Z,58.2430
2022-08-26T03:36:06.112Z,58.0610
2022-08-26T03:37:08.437Z,57.9180
2022-08-26T03:38:08.604Z,58.1780
2022-08-26T03:39:10.981Z,58.1380
2022-08-26T03:40:13.354Z,57.9860
2022-08-26T03:41:15.630Z,58.1370
2022-08-26T03:42:17.970Z,58.1130
2022-08-26T03:43:20.326Z,58.4790
2022-08-26T03:44:20.558Z,58.6490
2022-08-26T03:45:22.902Z,58.7120
2022-08-26T03:46:25.320Z,58.5740
2022-08-26T03:47:27.578Z,58.6290
2022-08-26T03:48:29.915Z,58.8140
2022-08-26T03:49:30.158Z,58.9900
2022-08-26T03:50:34.295Z,59.2690
2022-08-26T03:51:34.886Z,58.9850
2022-08-26T03:52:35.118Z,58.8170
2022-08-26T03:53:37.429Z,58.8240
2022-08-26T03:54:39.814Z,59.2380
2022-08-26T03:56:18.865Z,59.4160
2022-08-26T03:57:21.140Z,59.2880
2022-08-26T03:58:22.276Z,58.9620
2022-08-26T03:59:23.557Z,58.9560
2022-08-26T04:00:25.933Z,59.1880
2022-08-26T04:01:28.331Z,59.3100
2022-08-26T04:02:30.606Z,59.2000
2022-08-26T04:03:30.716Z,59.1780
2022-08-26T04:04:33.059Z,58.9430
2022-08-26T04:05:35.429Z,58.5890
2022-08-26T04:06:37.721Z,58.5330
2022-08-26T04:07:40.030Z,58.4460
2022-08-26T04:08:42.342Z,58.3620
2022-08-26T04:09:42.482Z,58.3490
2022-08-26T04:10:44.854Z,58.4330
2022-08-26T04:11:47.499Z,58.6570
2022-08-26T04:12:49.539Z,58.3520
2022-08-26T04:13:51.894Z,58.0990
2022-08-26T04:14:52.086Z,58.0890
2022-08-26T04:15:54.466Z,57.9000
2022-08-26T04:16:56.765Z,58.3860
2022-08-26T04:17:59.119Z,58.4760
2022-08-26T04:19:01.480Z,58.7060
2022-08-26T04:20:01.686Z,58.7420
2022-08-26T04:21:04.054Z,58.7100
2022-08-26T04:22:06.344Z,59.0920
2022-08-26T04:23:08.798Z,58.8580
2022-08-26T04:24:12.074Z,58.5770
2022-08-26T04:25:13.251Z,58.2840
2022-08-26T04:26:13.439Z,58.0480
2022-08-26T04:27:15.739Z,58.1540
2022-08-26T04:28:18.072Z,58.4600
2022-08-26T04:29:20.415Z,58.8210
2022-08-26T04:30:22.766Z,59.0610
2022-08-26T04:31:25.117Z,58.9850
2022-08-26T04:32:27.336Z,58.7070
2022-08-26T04:33:32.422Z,58.5870
2022-08-26T04:34:31.971Z,58.8750
2022-08-26T04:35:34.326Z,59.1460
2022-08-26T04:36:34.522Z,59.0350
2022-08-26T04:37:36.831Z,58.7860
2022-08-26T04:38:39.103Z,58.6550
2022-08-26T04:39:41.441Z,58.6880
2022-08-26T04:40:43.732Z,58.7060
2022-08-26T04:41:46.065Z,58.6430
2022-08-26T04:42:48.368Z,58.6120
2022-08-26T04:43:48.537Z,58.2660
2022-08-26T04:44:50.878Z,58.2220
2022-08-26T04:45:53.164Z,58.2700
2022-08-26T04:46:55.581Z,58.4040
2022-08-26T04:47:57.823Z,58.8950
2022-08-26T04:48:58.007Z,58.9530
2022-08-26T04:50:00.284Z,59.0870
2022-08-26T04:51:02.624Z,59.2440
2022-08-26T04:52:05.017Z,59.5170
2022-08-26T04:53:07.466Z,59.7340
2022-08-26T04:54:09.632Z,59.7350
2022-08-26T04:55:09.793Z,59.7090
2022-08-26T04:56:12.150Z,59.6370
2022-08-26T04:57:14.562Z,59.8210
2022-08-26T04:58:16.903Z,60.1170
2022-08-26T04:59:19.282Z,60.0730
2022-08-26T05:00:19.519Z,60.0610
2022-08-26T05:01:21.951Z,60.2170
2022-08-26T05:02:24.299Z,60.1780
2022-08-26T05:03:26.649Z,59.8280
2022-08-26T05:04:26.828Z,59.5500
2022-08-26T05:05:29.067Z,59.2990
2022-08-26T05:06:31.344Z,59.0530
2022-08-26T05:07:31.538Z,58.9490
2022-08-26T05:08:33.894Z,58.8710
2022-08-26T05:09:36.254Z,58.7670
2022-08-26T05:12:02.510Z,58.3990
2022-08-26T05:13:04.763Z,58.3190
2022-08-26T05:14:06.936Z,58.3380
2022-08-26T05:15:09.208Z,58.2030
2022-08-26T05:16:11.862Z,58.1180
2022-08-26T05:17:14.946Z,57.9560
2022-08-26T05:18:13.958Z,58.0440
2022-08-26T05:19:18.692Z,57.9630
2022-08-26T05:20:21.577Z,57.8630
2022-08-26T05:21:20.764Z,57.9600
2022-08-26T05:22:23.069Z,57.9480
2022-08-26T05:23:25.373Z,57.9910
2022-08-26T05:24:27.613Z,58.1160
2022-08-26T05:25:27.703Z,57.9930
2022-08-26T05:26:29.978Z,58.0480
2022-08-26T05:27:32.280Z,58.0430
2022-08-26T05:28:34.613Z,58.1680
2022-08-26T05:29:39.069Z,58.2290
2022-08-26T05:30:09.146Z,58.3740
2022-08-26T05:31:11.636Z,58.5410
2022-08-26T05:32:13.780Z,58.5180
2022-08-26T05:33:16.094Z,58.5470
2022-08-26T05:34:18.455Z,58.5580
2022-08-26T05:35:20.719Z,58.7190
2022-08-26T05:36:23.035Z,58.9450
2022-08-26T05:37:23.188Z,59.0560
2022-08-26T05:38:25.436Z,59.0480
2022-08-26T05:39:27.780Z,59.2050
2022-08-26T05:40:30.107Z,59.1670
2022-08-26T05:41:34.384Z,58.9930
2022-08-26T05:42:34.689Z,58.4860
2022-08-26T05:43:34.806Z,57.8360
2022-08-26T05:44:53.577Z,57.3060
2022-08-26T05:45:43.547Z,56.8630
2022-08-26T05:46:41.702Z,56.6180
2022-08-26T05:47:43.913Z,56.1650
2022-08-26T05:48:46.267Z,55.9290
2022-08-26T05:49:51.442Z,55.6190
2022-08-26T05:50:48.798Z,55.4910
2022-08-26T05:51:51.123Z,55.2360
2022-08-26T05:52:53.446Z,55.0770
2022-08-26T05:53:55.754Z,54.8860
2022-08-26T05:54:58.082Z,54.6970
2022-08-26T05:55:13.119Z,54.6560
2022-08-26T05:56:15.399Z,54.5110
2022-08-26T05:57:18.516Z,54.4100
2022-08-26T05:58:20.083Z,54.3060
2022-08-26T05:59:24.598Z,54.1890
2022-08-26T06:00:24.773Z,54.1200
2022-08-26T06:01:24.947Z,54.0240
2022-08-26T06:02:27.207Z,53.9200
2022-08-26T06:03:29.498Z,53.8570
2022-08-26T06:04:31.781Z,53.7700
2022-08-26T06:05:38.310Z,53.6930
2022-08-26T06:06:36.409Z,53.7060
2022-08-26T06:07:18.949Z,53.7370
2022-08-26T06:08:19.633Z,53.7060
2022-08-26T06:09:21.873Z,53.6200
2022-08-26T06:10:32.801Z,53.5620
2022-08-26T06:11:26.459Z,53.5430
2022-08-26T06:12:26.552Z,53.4660
2022-08-26T06:13:31.413Z,53.4140
2022-08-26T06:14:31.009Z,53.3660
2022-08-26T06:15:33.386Z,53.3210
2022-08-26T06:16:35.612Z,53.2730
2022-08-26T06:17:37.824Z,53.2250
2022-08-26T06:18:40.051Z,53.1790
2022-08-26T06:19:42.256Z,53.1440
2022-08-26T06:20:56.930Z,53.1190
2022-08-26T06:21:46.743Z,53.1190
2022-08-26T06:22:46.824Z,53.0690
2022-08-26T06:23:49.079Z,53.0460
2022-08-26T06:24:51.331Z,53.0490
2022-08-26T06:25:53.583Z,53.0050
2022-08-26T06:26:55.853Z,52.9520
2022-08-26T06:27:58.071Z,52.9210
2022-08-26T06:29:00.314Z,52.9040
2022-08-26T06:30:02.549Z,52.9110
2022-08-26T06:31:04.803Z,52.9090
2022-08-26T06:32:06.995Z,52.8120
2022-08-26T06:33:09.466Z,52.8320
2022-08-26T06:34:11.403Z,52.7800
2022-08-26T06:35:12.069Z,52.7590
2022-08-26T06:36:13.743Z,52.7530
2022-08-26T06:37:15.946Z,52.7360
2022-08-26T06:38:18.131Z,52.7180
2022-08-26T06:39:20.473Z,52.6820
2022-08-26T06:40:22.743Z,52.6990
2022-08-26T06:41:24.865Z,52.6770
2022-08-26T06:42:27.085Z,52.6240
2022-08-26T06:43:29.257Z,52.6090
2022-08-26T06:44:32.461Z,52.5760
2022-08-26T06:45:33.681Z,52.5760
2022-08-26T06:46:33.884Z,52.5570
2022-08-26T06:47:35.998Z,52.5910
2022-08-26T06:48:38.193Z,52.5450
2022-08-26T06:49:40.479Z,52.5350
2022-08-26T06:50:42.658Z,52.5350
2022-08-26T06:51:44.862Z,52.4870
2022-08-26T06:52:47.122Z,52.4810
2022-08-26T06:53:49.287Z,52.5040
2022-08-26T06:54:51.510Z,52.4310
2022-08-26T06:55:53.735Z,52.4050
2022-08-26T06:56:55.946Z,52.3860
2022-08-26T06:57:57.061Z,52.4620
2022-08-26T06:58:59.252Z,52.6470
2022-08-26T07:00:00.443Z,52.7720
2022-08-26T07:01:11.332Z,52.6600
2022-08-26T07:02:04.985Z,52.6290
2022-08-26T07:03:07.569Z,52.5340
2022-08-26T07:04:10.608Z,52.4460
2022-08-26T07:05:11.683Z,52.4060
2022-08-26T07:06:13.973Z,52.3840
2022-08-26T07:07:16.237Z,52.3360
2022-08-26T07:08:18.592Z,52.3070
2022-08-26T07:09:18.615Z,52.3130
2022-08-26T07:10:20.895Z,52.3130
2022-08-26T07:11:23.175Z,52.3010
2022-08-26T07:12:25.465Z,52.2950
2022-08-26T07:13:30.558Z,52.3050
2022-08-26T07:14:29.998Z,52.3760
2022-08-26T07:15:32.386Z,52.2780
2022-08-26T07:16:32.396Z,52.2660
2022-08-26T07:17:34.654Z,52.2310
2022-08-26T07:18:36.952Z,52.2640
2022-08-26T07:19:39.166Z,52.2310
2022-08-26T07:20:42.261Z,52.2020
2022-08-26T07:21:43.686Z,52.1870
2022-08-26T07:22:45.985Z,52.1290
2022-08-26T07:23:48.283Z,52.1640
2022-08-26T07:24:50.556Z,52.1640
2022-08-26T07:25:50.674Z,52.1390
2022-08-26T07:26:52.931Z,52.1450
2022-08-26T07:27:55.228Z,52.1040
2022-08-26T07:28:57.563Z,52.1100
2022-08-26T07:29:59.815Z,52.1140
2022-08-26T07:31:02.150Z,52.1210
2022-08-26T07:32:02.225Z,52.1110
2022-08-26T07:33:04.699Z,52.1150
2022-08-26T07:34:06.825Z,52.1050
2022-08-26T07:35:09.090Z,52.0280
2022-08-26T07:36:11.379Z,52.0860
2022-08-26T07:37:11.521Z,52.0930
2022-08-26T07:38:13.782Z,52.1180
2022-08-26T07:39:16.078Z,52.1320
2022-08-26T07:40:18.347Z,52.0930
2022-08-26T07:41:20.520Z,52.1240
2022-08-26T07:42:22.743Z,52.0570
2022-08-26T07:43:24.974Z,52.1350
2022-08-26T07:44:27.286Z,52.1690
2022-08-26T07:45:29.502Z,52.1510
2022-08-26T07:46:31.747Z,52.1260
2022-08-26T07:47:31.880Z,52.1190
2022-08-26T07:48:34.169Z,52.1280
2022-08-26T07:49:36.526Z,52.1490
2022-08-26T07:50:50.157Z,52.1160
2022-08-26T07:51:40.960Z,52.1280
2022-08-26T07:52:43.223Z,52.1100
2022-08-26T07:53:45.448Z,52.0740
2022-08-26T07:54:47.718Z,52.1030
2022-08-26T07:55:47.771Z,52.0430
2022-08-26T07:56:50.024Z,52.1080
2022-08-26T07:57:52.277Z,52.1680
2022-08-26T07:58:54.520Z,52.1140
2022-08-26T07:59:56.836Z,52.0670
2022-08-26T08:00:59.030Z,52.0190
2022-08-26T08:02:01.352Z,52.0900
2022-08-26T08:03:03.483Z,52.0830
2022-08-26T08:04:05.734Z,52.1090
2022-08-26T08:05:05.853Z,52.1280
2022-08-26T08:06:08.003Z,52.1020
2022-08-26T08:07:11.501Z,52.0500
2022-08-26T08:08:27.777Z,52.0670
2022-08-26T08:09:12.554Z,52.0900
2022-08-26T08:10:14.781Z,52.0730
2022-08-26T08:11:16.956Z,52.0380
2022-08-26T08:12:19.167Z,52.0000
2022-08-26T08:13:21.399Z,52.0170
2022-08-26T08:14:23.618Z,52.0030
2022-08-26T08:15:25.886Z,51.9590
2022-08-26T08:16:28.160Z,52.0370
2022-08-26T08:17:30.367Z,52.0300
2022-08-26T08:18:32.613Z,52.0550
2022-08-26T08:19:38.964Z,52.0680
2022-08-26T08:20:35.090Z,52.1070
2022-08-26T08:21:37.341Z,52.0740
2022-08-26T08:22:39.584Z,52.1300
2022-08-26T08:23:41.837Z,52.0910
2022-08-26T08:24:44.124Z,52.1600
2022-08-26T08:25:46.426Z,52.0790
2022-08-26T08:26:48.685Z,52.1330
2022-08-26T08:27:48.842Z,52.1540
2022-08-26T08:28:51.090Z,52.1850
2022-08-26T08:29:53.373Z,52.1600
2022-08-26T08:30:55.757Z,52.2040
2022-08-26T08:31:58.703Z,52.1470
2022-08-26T08:33:00.267Z,52.1470
2022-08-26T08:34:02.541Z,52.1910
2022-08-26T08:35:11.099Z,52.2140
2022-08-26T08:36:04.895Z,52.2680
2022-08-26T08:37:10.104Z,52.2260
2022-08-26T08:38:09.560Z,52.2470
2022-08-26T08:39:11.625Z,52.2840
2022-08-26T08:40:13.900Z,52.2790
2022-08-26T08:41:16.098Z,52.2660
2022-08-26T08:42:18.242Z,52.2790
2022-08-26T08:43:20.490Z,52.2290
2022-08-26T08:45:22.905Z,52.2640
2022-08-26T08:46:25.248Z,52.2310
2022-08-26T08:47:27.390Z,52.2060
2022-08-26T08:48:29.640Z,52.2150
2022-08-26T08:49:31.888Z,52.1770
2022-08-26T08:50:34.100Z,52.1880
2022-08-26T08:51:36.344Z,52.1360
2022-08-26T08:52:38.540Z,52.1420
2022-08-26T08:53:40.742Z,52.1240
2022-08-26T08:54:42.963Z,52.1420
2022-08-26T08:55:45.149Z,52.1480
2022-08-26T08:56:47.366Z,52.1170
2022-08-26T08:57:49.546Z,52.1050
2022-08-26T08:58:51.741Z,52.1170
2022-08-26T08:59:53.903Z,52.0690
2022-08-26T09:02:17.861Z,52.0630
2022-08-26T09:03:19.983Z,52.0510
2022-08-26T09:04:22.242Z,52.0050
2022-08-26T09:05:24.471Z,51.9640
2022-08-26T09:06:24.551Z,51.9280
2022-08-26T09:07:26.742Z,51.9030
2022-08-26T09:08:28.952Z,51.8910
2022-08-26T09:09:31.214Z,51.8850
2022-08-26T09:10:33.475Z,51.8520
2022-08-26T09:11:35.737Z,51.8450
2022-08-26T09:12:37.977Z,51.8450
2022-08-26T09:13:40.199Z,51.7810
2022-08-26T09:14:42.475Z,51.8000
2022-08-26T09:15:44.738Z,51.7790
2022-08-26T09:16:44.826Z,51.7920
2022-08-26T09:17:47.058Z,51.7050
2022-08-26T09:18:49.282Z,51.7170
2022-08-26T09:19:53.659Z,51.7380
2022-08-26T09:20:23.737Z,51.7150
2022-08-26T09:21:26.004Z,51.7210
2022-08-26T09:22:28.288Z,51.7050
2022-08-26T09:23:30.611Z,51.7090
2022-08-26T09:24:30.689Z,51.7260
2022-08-26T09:25:32.949Z,51.6900
2022-08-26T09:26:35.231Z,51.7150
2022-08-26T09:27:37.550Z,51.6900
2022-08-26T09:28:39.830Z,51.6900
2022-08-26T09:29:42.078Z,51.6970
2022-08-26T09:30:44.466Z,51.6840
2022-08-26T09:31:46.661Z,51.6740
2022-08-26T09:32:55.733Z,51.6680
2022-08-26T09:33:49.128Z,51.7210
2022-08-26T09:34:51.383Z,51.6930
2022-08-26T09:35:53.669Z,51.6740
2022-08-26T09:36:55.947Z,51.6560
2022-08-26T09:37:58.236Z,51.6430
2022-08-26T09:38:28.319Z,51.6140
2022-08-26T09:39:30.614Z,51.6080
2022-08-26T09:40:34.923Z,51.6200
2022-08-26T09:41:35.136Z,51.6260
2022-08-26T09:42:37.445Z,51.6100
2022-08-26T09:43:39.724Z,51.6160
2022-08-26T09:44:39.885Z,51.5860
2022-08-26T09:45:50.592Z,51.5980
2022-08-26T09:46:44.435Z,51.6370
2022-08-26T09:47:46.729Z,51.6110
2022-08-26T09:48:53.024Z,51.5670
2022-08-26T09:49:51.307Z,51.5920
2022-08-26T09:50:53.552Z,51.5730
2022-08-26T09:51:53.697Z,51.5630
2022-08-26T09:52:56.003Z,51.5090
2022-08-26T09:53:58.309Z,51.5090
2022-08-26T09:55:00.659Z,51.5240
2022-08-26T09:56:02.911Z,51.4900
2022-08-26T09:57:05.210Z,51.4780
2022-08-26T09:58:07.890Z,51.4550
2022-08-26T09:59:07.643Z,51.4550
2022-08-26T10:00:09.974Z,51.4680
2022-08-26T10:01:12.291Z,51.4430
2022-08-26T10:02:14.517Z,51.4470
2022-08-26T10:03:17.363Z,51.4310
2022-08-26T10:04:19.080Z,51.3960
2022-08-26T10:05:21.322Z,51.4080
2022-08-26T10:06:23.586Z,51.3920
2022-08-26T10:07:23.728Z,51.3840
2022-08-26T10:08:26.027Z,51.3710
2022-08-26T10:09:28.279Z,51.3440
2022-08-26T10:10:30.526Z,51.3380
2022-08-26T10:11:32.752Z,51.2940
2022-08-26T10:12:34.986Z,51.3070
2022-08-26T10:13:37.246Z,51.2940
2022-08-26T10:14:37.406Z,51.2780
2022-08-26T10:15:39.622Z,51.2780
2022-08-26T10:16:42.020Z,51.2240
2022-08-26T10:17:44.102Z,51.2290
2022-08-26T10:18:46.359Z,51.2120
2022-08-26T10:19:56.924Z,51.2000
2022-08-26T10:20:50.886Z,51.2180
2022-08-26T10:21:53.134Z,51.1900
2022-08-26T10:22:55.341Z,51.1960
2022-08-26T10:23:57.576Z,51.1900
2022-08-26T10:24:59.799Z,51.1610
2022-08-26T10:25:59.874Z,51.1610
2022-08-26T10:27:02.037Z,51.1490
2022-08-26T10:28:04.450Z,51.1240
2022-08-26T10:29:06.518Z,51.1180
2022-08-26T10:30:08.724Z,51.1070
2022-08-26T10:31:10.978Z,51.1010
2022-08-26T10:32:13.866Z,51.0700
2022-08-26T10:33:15.413Z,51.0530
2022-08-26T10:34:14.345Z,51.1770
2022-08-26T10:35:16.648Z,51.1670
2022-08-26T10:36:20.292Z,51.1410
2022-08-26T10:37:20.023Z,51.1070
2022-08-26T10:38:22.244Z,51.0930
2022-08-26T10:39:24.481Z,51.0720
2022-08-26T10:40:24.627Z,51.0350
2022-08-26T10:41:26.783Z,51.0290
2022-08-26T10:42:29.091Z,51.0120
2022-08-26T10:43:31.182Z,51.0120
2022-08-26T10:44:33.390Z,51.0000
2022-08-26T10:45:35.659Z,50.9760
2022-08-26T10:46:37.874Z,50.9880
2022-08-26T10:47:40.083Z,51.0130
2022-08-26T10:48:42.348Z,51.0000
2022-08-26T10:49:44.613Z,50.9720
2022-08-26T10:50:47.438Z,50.9900
2022-08-26T10:51:47.020Z,50.9900
2022-08-26T10:52:49.212Z,50.9880
2022-08-26T10:53:51.729Z,50.9820
2022-08-26T10:54:53.652Z,50.9700
2022-08-26T10:55:55.867Z,50.9610
2022-08-26T10:56:58.113Z,50.9490
2022-08-26T10:58:00.294Z,50.9430
2022-08-26T10:59:02.507Z,50.9820
2022-08-26T11:00:04.694Z,50.9240
2022-08-26T11:01:10.434Z,50.9280
2022-08-26T11:02:09.139Z,50.9280
2022-08-26T11:03:22.020Z,50.9220
2022-08-26T11:04:11.465Z,50.9410
2022-08-26T11:05:13.614Z,50.9060
2022-08-26T11:06:15.831Z,50.8770
2022-08-26T11:07:18.075Z,50.8650
2022-08-26T11:08:20.249Z,50.8650
2022-08-26T11:09:28.739Z,50.8610
2022-08-26T11:09:30.012Z,50.8770
2022-08-26T11:10:31.093Z,50.8830
2022-08-26T11:11:31.167Z,50.8690
2022-08-26T11:12:33.404Z,50.8490
2022-08-26T11:13:38.763Z,50.8340
2022-08-26T11:14:46.156Z,50.8820
2022-08-26T11:15:40.007Z,50.9390
2022-08-26T11:16:43.273Z,50.9250
2022-08-26T11:17:44.483Z,50.9250
2022-08-26T11:18:46.674Z,50.9390
2022-08-26T11:20:00.318Z,50.9170
2022-08-26T11:20:51.092Z,50.9360
2022-08-26T11:21:53.325Z,50.9230
2022-08-26T11:22:55.582Z,50.9170
2022-08-26T11:23:57.809Z,50.8950
2022-08-26T11:24:57.905Z,50.8760
2022-08-26T11:26:00.154Z,50.8720
2022-08-26T11:27:02.415Z,50.8310
2022-08-26T11:28:04.724Z,50.8390
2022-08-26T11:29:12.261Z,50.8290
2022-08-26T11:30:09.130Z,50.8450
2022-08-26T11:31:11.411Z,50.8290
2022-08-26T11:32:13.673Z,50.8180
2022-08-26T11:33:15.955Z,50.8000
2022-08-26T11:34:18.174Z,50.7940
2022-08-26T11:35:18.267Z,50.7900
2022-08-26T11:36:20.513Z,50.7650
2022-08-26T11:37:22.764Z,50.7340
2022-08-26T11:38:24.953Z,50.7300
2022-08-26T11:39:27.150Z,50.7360
2022-08-26T11:40:29.409Z,50.7120
2022-08-26T11:41:31.585Z,50.7140
2022-08-26T11:42:33.778Z,50.7010
2022-08-26T11:43:36.000Z,50.6640
2022-08-26T11:44:38.151Z,50.6770
2022-08-26T11:45:40.431Z,50.6640
2022-08-26T11:46:42.629Z,50.6640
2022-08-26T11:47:44.833Z,50.6680
2022-08-26T11:48:45.147Z,50.6540
2022-08-26T11:49:47.179Z,50.6650
2022-08-26T11:50:49.452Z,50.6750
2022-08-26T11:51:51.672Z,50.6480
2022-08-26T11:52:53.900Z,50.6230
2022-08-26T11:53:56.199Z,50.6280
2022-08-26T11:54:58.356Z,50.6400
2022-08-26T11:56:00.590Z,50.6190
2022-08-26T11:57:07.777Z,50.6110
2022-08-26T11:58:05.812Z,50.6550
2022-08-26T11:59:07.566Z,50.6220
2022-08-26T12:00:09.490Z,50.6240
2022-08-26T12:01:11.454Z,50.6490
2022-08-26T12:02:11.981Z,50.6180
2022-08-26T12:03:14.300Z,50.6280
2022-08-26T12:03:36.034Z,50.6400
2022-08-26T12:04:38.141Z,50.6300
2022-08-26T12:05:40.197Z,50.6050
2022-08-26T12:06:45.412Z,50.5870
2022-08-26T12:07:42.770Z,50.6120
2022-08-26T12:08:44.734Z,50.6120
2022-08-26T12:09:47.019Z,50.6320
2022-08-26T12:10:49.236Z,50.6390
2022-08-26T12:11:51.494Z,50.6240
2022-08-26T12:12:53.741Z,50.6220
2022-08-26T12:13:55.944Z,50.6220
2022-08-26T12:14:58.175Z,50.6530
2022-08-26T12:16:00.408Z,50.6590
2022-08-26T12:17:02.664Z,50.6450
2022-08-26T12:18:05.083Z,50.6330
2022-08-26T12:19:05.085Z,50.6450
2022-08-26T12:20:07.367Z,50.6450
2022-08-26T12:21:09.504Z,50.6830
2022-08-26T12:22:11.761Z,50.6270
2022-08-26T12:23:14.009Z,50.6290
2022-08-26T12:24:16.250Z,50.6740
2022-08-26T12:25:18.529Z,50.6800
2022-08-26T12:26:20.783Z,50.6870
2022-08-26T12:27:23.008Z,50.7120
2022-08-26T12:28:25.197Z,50.7510
2022-08-26T12:29:27.126Z,50.7340
2022-08-26T12:30:27.493Z,50.7800
2022-08-26T12:31:29.707Z,50.8320